Time;durP1;ratioP1;P1;durP2;ratioP2;P2;SDS_P1;SDS_P2;PMS_P1;PMS_P2;Temp;Humidity;BMP_temperature;BMP_pressure;BME280_temperature;BME280_humidity;BME280_pressure;Samples;Min_cycle;Max_cycle;Signal;HPM_P1;HPM_P2
2022/08/04 00:01:44;;;;;;;4.70;1.90;;;;;;;28.94;29.11;98410.56;5052813;28;20028;-49
2022/08/04 00:04:17;;;;;;;2.20;1.00;;;;;;;28.94;28.61;98402.47;5052778;28;20404;-48
2022/08/04 00:06:53;;;;;;;5.70;1.10;;;;;;;28.87;28.23;98414.56;5052628;28;20021;-49
2022/08/04 00:09:38;;;;;;;1.88;1.20;;;;;;;28.88;27.36;98397.25;5052677;28;20114;-49
2022/08/04 00:12:07;;;;;;;1.23;0.98;;;;;;;28.90;26.85;98399.63;5052522;28;20087;-49
2022/08/04 00:14:40;;;;;;;2.35;0.88;;;;;;;28.83;26.53;98397.41;5052830;28;20036;-49
2022/08/04 00:17:07;;;;;;;1.77;0.68;;;;;;;28.77;26.48;98414.16;5034631;28;20521;-49
2022/08/04 00:19:43;;;;;;;3.78;1.13;;;;;;;28.83;25.95;98413.63;5034017;28;20025;-49
2022/08/04 00:22:12;;;;;;;2.10;0.70;;;;;;;28.80;25.90;98397.31;5052448;28;20075;-49
2022/08/04 00:24:38;;;;;;;3.42;0.95;;;;;;;28.77;26.04;98406.84;5052318;28;20052;-49
2022/08/04 00:27:07;;;;;;;1.77;0.90;;;;;;;28.73;26.09;98400.50;5052855;28;20029;-50
2022/08/04 00:29:34;;;;;;;2.00;0.77;;;;;;;28.74;25.95;98406.72;5072252;28;20051;-49
2022/08/04 00:32:02;;;;;;;5.18;1.00;;;;;;;28.76;26.43;98404.47;5072108;28;20021;-49
2022/08/04 00:34:30;;;;;;;1.98;0.70;;;;;;;28.72;26.44;98396.25;5072099;28;20513;-47
2022/08/04 00:36:57;;;;;;;2.05;0.82;;;;;;;28.71;26.51;98418.16;5072071;28;20020;-48
2022/08/04 00:39:23;;;;;;;4.80;0.82;;;;;;;28.69;26.74;98404.97;5054086;28;20020;-48
2022/08/04 00:42:08;;;;;;;6.07;0.95;;;;;;;28.70;27.00;98406.56;5054034;28;20112;-49
2022/08/04 00:45:00;;;;;;;3.03;1.00;;;;;;;28.72;26.82;98415.16;5072010;28;20493;-49
2022/08/04 00:47:47;;;;;;;4.35;1.10;;;;;;;28.72;27.59;98425.94;5054000;28;20035;-49
2022/08/04 00:50:49;;;;;;;1.58;0.95;;;;;;;28.80;27.34;98421.63;5072008;28;20090;-49
2022/08/04 00:53:35;;;;;;;10.60;1.30;;;;;;;28.82;27.39;98417.47;5058001;28;20039;-49
2022/08/04 00:56:12;;;;;;;12.73;1.27;;;;;;;28.91;27.48;98436.31;5071977;28;20055;-47
2022/08/04 00:59:01;;;;;;;5.68;0.90;;;;;;;28.86;27.58;98426.50;5071871;28;20032;-47
2022/08/04 01:02:08;;;;;;;2.95;0.73;;;;;;;28.83;27.99;98426.34;5071879;28;20374;-48
2022/08/04 01:04:40;;;;;;;4.18;1.35;;;;;;;28.80;28.13;98430.50;5050953;28;20499;-48
2022/08/04 01:07:20;;;;;;;4.93;0.85;;;;;;;28.75;27.74;98425.28;5071722;28;20028;-47
2022/08/04 01:10:01;;;;;;;9.60;1.40;;;;;;;28.78;28.17;98432.75;5071799;28;20021;-47
2022/08/04 01:13:04;;;;;;;5.95;1.20;;;;;;;28.87;28.25;98425.34;5053688;28;20482;-47
2022/08/04 01:15:48;;;;;;;2.65;1.08;;;;;;;28.85;28.19;98421.41;5071604;28;20032;-47
2022/08/04 01:18:26;;;;;;;4.05;1.08;;;;;;;28.79;28.45;98420.81;5053735;28;20064;-48
2022/08/04 01:21:11;;;;;;;5.40;1.35;;;;;;;28.75;28.50;98422.56;5053761;28;20051;-48
2022/08/04 01:23:59;;;;;;;8.27;1.35;;;;;;;28.72;28.26;98417.84;5071608;28;20032;-48
2022/08/04 01:26:31;;;;;;;3.10;1.20;;;;;;;28.70;28.97;98427.41;5070680;28;20036;-48
2022/08/04 01:29:11;;;;;;;2.33;1.23;;;;;;;28.61;28.83;98422.03;5071331;28;20135;-49
2022/08/04 01:32:01;;;;;;;2.90;0.90;;;;;;;28.56;28.95;98420.31;5071859;28;20025;-49
2022/08/04 01:35:02;;;;;;;3.97;1.10;;;;;;;28.56;28.85;98419.53;5075677;28;20481;-49
2022/08/04 01:37:50;;;;;;;2.13;0.90;;;;;;;28.54;29.24;98417.16;5035917;28;20036;-48
2022/08/04 01:40:16;;;;;;;6.30;1.67;;;;;;;28.58;29.42;98422.69;5022141;28;20123;-49
2022/08/04 01:42:44;;;;;;;1.80;1.05;;;;;;;28.61;29.15;98420.09;5075466;28;20462;-49
2022/08/04 01:45:12;;;;;;;1.10;0.90;;;;;;;28.60;29.50;98426.66;5075354;28;20027;-49
2022/08/04 01:47:42;;;;;;;5.15;1.35;;;;;;;28.58;29.35;98420.78;5075335;28;20039;-48
2022/08/04 01:50:11;;;;;;;5.80;1.52;;;;;;;28.64;29.62;98424.09;5057370;28;20041;-47
2022/08/04 01:52:40;;;;;;;3.63;1.00;;;;;;;28.63;29.89;98428.72;5057144;28;20406;-46
2022/08/04 01:55:09;;;;;;;9.77;1.52;;;;;;;28.68;29.94;98433.13;5057187;28;20024;-47
2022/08/04 01:57:41;;;;;;;13.55;1.73;;;;;;;28.67;29.93;98426.13;5075240;28;20040;-47
2022/08/04 02:00:09;;;;;;;4.80;1.55;;;;;;;28.62;30.16;98429.81;5040683;28;20028;-47
2022/08/04 02:02:34;;;;;;;2.88;1.17;;;;;;;28.62;29.69;98423.63;5057081;28;20038;-47
2022/08/04 02:05:00;;;;;;;5.85;1.80;;;;;;;28.59;30.15;98433.16;5074963;28;20037;-47
2022/08/04 02:08:08;;;;;;;15.60;1.73;;;;;;;28.54;29.90;98427.16;5074973;28;20024;-48
2022/08/04 02:10:51;;;;;;;48.08;4.25;;;;;;;28.60;29.84;98428.56;5056847;28;20036;-48
2022/08/04 02:13:32;;;;;;;25.67;2.38;;;;;;;28.60;29.67;98421.25;5075023;28;20449;-47
2022/08/04 02:16:12;;;;;;;24.98;2.13;;;;;;;28.51;29.83;98423.19;5056810;28;20587;-47
2022/08/04 02:19:07;;;;;;;19.00;2.22;;;;;;;28.56;30.19;98420.31;5074729;28;20052;-47
2022/08/04 02:21:33;;;;;;;7.43;1.33;;;;;;;28.73;30.35;98416.72;5074741;28;20383;-48
2022/08/04 02:24:11;;;;;;;6.20;1.77;;;;;;;28.73;30.57;98419.41;5074640;28;20027;-48
2022/08/04 02:26:40;;;;;;;6.25;1.42;;;;;;;28.60;31.00;98423.16;5074631;28;20047;-47
2022/08/04 02:29:30;;;;;;;6.75;1.45;;;;;;;28.49;31.50;98420.81;5092145;28;20043;-47
2022/08/04 02:32:03;;;;;;;6.53;3.10;;;;;;;28.37;32.61;98414.50;5094721;28;20054;-47
2022/08/04 02:34:37;;;;;;;3.70;1.50;;;;;;;28.32;32.58;98414.69;5094789;28;20497;-47
2022/08/04 02:37:05;;;;;;;5.18;0.95;;;;;;;28.40;32.45;98422.75;5076566;28;20032;-47
2022/08/04 02:39:34;;;;;;;2.60;1.13;;;;;;;28.40;32.08;98419.25;5094917;28;20035;-47
2022/08/04 02:42:04;;;;;;;3.47;1.20;;;;;;;28.49;31.70;98425.38;5076395;28;20030;-46
2022/08/04 02:44:30;;;;;;;5.65;1.30;;;;;;;28.43;31.53;98411.31;5075944;28;20051;-46
2022/08/04 02:47:00;;;;;;;2.40;1.13;;;;;;;28.40;31.95;98419.25;5076329;28;20497;-47
2022/08/04 02:49:29;;;;;;;3.63;1.42;;;;;;;28.35;31.83;98422.13;5094373;28;20021;-47
2022/08/04 02:51:56;;;;;;;5.82;1.27;;;;;;;28.28;31.99;98420.72;5094612;28;20103;-47
2022/08/04 02:54:27;;;;;;;5.25;1.00;;;;;;;28.31;32.53;98429.28;5094419;28;20085;-48
2022/08/04 02:56:58;;;;;;;10.43;1.30;;;;;;;28.23;32.17;98426.31;5076275;28;20028;-47
2022/08/04 02:59:37;;;;;;;1.95;1.05;;;;;;;28.13;32.69;98431.25;5094283;28;20481;-47
2022/08/04 03:02:03;;;;;;;12.00;2.30;;;;;;;28.29;32.46;98424.19;5076128;28;20024;-47
2022/08/04 03:04:50;;;;;;;10.70;1.75;;;;;;;28.71;31.27;98423.56;5094195;28;20125;-48
2022/08/04 03:07:41;;;;;;;1.42;1.05;;;;;;;28.73;31.57;98415.94;5094090;28;20028;-47
2022/08/04 03:10:20;;;;;;;25.65;2.65;;;;;;;28.65;31.67;98422.94;5094084;28;20111;-47
2022/08/04 03:13:13;;;;;;;9.70;2.30;;;;;;;28.95;31.28;98422.94;5075797;28;20132;-47
2022/08/04 03:16:00;;;;;;;6.10;1.50;;;;;;;29.10;30.75;98411.56;5093886;28;20028;-47
2022/08/04 03:18:28;;;;;;;5.82;2.45;;;;;;;29.03;31.13;98416.69;5060284;28;20118;-47
2022/08/04 03:21:12;;;;;;;6.47;2.10;;;;;;;29.03;31.13;98424.78;5093857;28;20032;-47
2022/08/04 03:24:15;;;;;;;8.73;1.80;;;;;;;29.01;30.63;98425.09;5093868;28;20035;-48
2022/08/04 03:27:24;;;;;;;3.45;1.63;;;;;;;28.84;31.00;98417.91;5075571;28;20169;-48
2022/08/04 03:30:39;;;;;;;14.45;2.72;;;;;;;28.76;31.68;98418.78;5093698;28;20114;-47
2022/08/04 03:33:14;;;;;;;;;;;;;;;28.83;30.68;98420.94;5075534;28;20044;-47
2022/08/04 03:36:07;;;;;;;9.80;1.80;;;;;;;28.86;31.01;98421.09;5093564;28;19912;-47
2022/08/04 03:38:57;;;;;;;5.40;1.42;;;;;;;28.91;31.22;98424.72;5093346;28;20034;-46
2022/08/04 03:41:53;;;;;;;3.53;1.42;;;;;;;28.90;31.02;98423.94;5093398;28;20028;-48
2022/08/04 03:44:31;;;;;;;15.43;2.20;;;;;;;28.79;30.90;98426.19;5075279;28;20114;-48
2022/08/04 03:47:17;;;;;;;22.67;3.00;;;;;;;28.76;31.46;98418.78;5093292;28;20031;-47
2022/08/04 03:50:11;;;;;;;5.90;1.33;;;;;;;28.85;31.01;98419.50;5093254;28;20047;-47
2022/08/04 03:53:07;;;;;;;22.90;2.80;;;;;;;28.64;31.31;98421.38;5093446;28;20067;-47
2022/08/04 03:56:27;;;;;;;20.00;3.33;;;;;;;28.76;31.22;98409.88;5091776;28;20497;-47
2022/08/04 03:59:23;;;;;;;1.70;1.40;;;;;;;28.90;31.64;98415.81;5055136;28;20035;-46
2022/08/04 04:02:10;;;;;;;11.80;2.08;;;;;;;28.72;31.34;98412.44;5093052;28;20024;-47
2022/08/04 04:05:17;;;;;;;4.90;1.33;;;;;;;28.87;30.86;98419.94;5074834;28;20048;-48
2022/08/04 04:08:11;;;;;;;9.82;1.75;;;;;;;28.76;31.21;98409.88;5065139;28;20520;-47
2022/08/04 04:10:58;;;;;;;7.53;1.63;;;;;;;28.67;31.26;98423.41;5092797;28;20061;-48
2022/08/04 04:13:28;;;;;;;5.25;1.30;;;;;;;28.56;31.18;98420.31;5074565;28;20077;-47
2022/08/04 04:16:24;;;;;;;4.20;1.20;;;;;;;28.56;31.53;98416.81;5092837;28;20404;-47
2022/08/04 04:18:55;;;;;;;7.18;2.03;;;;;;;28.54;31.72;98421.75;5074600;28;20046;-49
2022/08/04 04:21:41;;;;;;;6.82;2.28;;;;;;;28.58;31.48;98417.28;5074483;28;20039;-49
2022/08/04 04:24:39;;;;;;;16.48;3.33;;;;;;;28.55;32.02;98426.03;5092646;28;20027;-49
2022/08/04 04:27:31;;;;;;;8.70;2.33;;;;;;;28.63;31.43;98420.59;5077613;28;20554;-49
2022/08/04 04:30:31;;;;;;;5.30;1.60;;;;;;;28.71;31.71;98426.25;5092590;28;20097;-49
2022/08/04 04:33:40;;;;;;;7.75;1.85;;;;;;;28.64;30.97;98437.59;5029945;28;20139;-49
2022/08/04 04:36:18;;;;;;;22.88;3.15;;;;;;;28.40;31.60;98435.44;5010080;28;20030;-49
2022/08/04 04:39:14;;;;;;;13.55;1.95;;;;;;;28.32;31.96;98447.88;5010357;28;20038;-48
2022/08/04 04:42:19;;;;;;;20.25;3.63;;;;;;;28.56;31.97;98443.84;5010199;28;20116;-49
2022/08/04 04:45:12;;;;;;;40.80;4.60;;;;;;;28.70;31.04;98444.38;4971142;28;20045;-49
2022/08/04 04:48:32;;;;;;;40.38;3.97;;;;;;;28.86;31.49;98442.69;4971123;28;20045;-49
2022/08/04 04:51:23;;;;;;;9.60;2.53;;;;;;;29.32;30.62;98445.59;4913629;29;20510;-49
2022/08/04 04:54:23;;;;;;;15.25;2.40;;;;;;;29.48;30.59;98443.09;4913608;29;20542;-49
2022/08/04 04:57:13;;;;;;;12.18;2.42;;;;;;;29.98;29.72;98444.84;4908542;29;20068;-49
2022/08/04 04:59:54;;;;;;;10.30;1.92;;;;;;;30.54;29.24;98441.66;4913480;29;20093;-49
2022/08/04 05:02:58;;;;;;;14.27;2.42;;;;;;;31.03;28.80;98443.56;4913545;29;20127;-49
2022/08/04 05:05:58;;;;;;;24.58;3.00;;;;;;;31.69;27.99;98441.53;4911475;29;20047;-49
2022/08/04 05:08:49;;;;;;;12.00;2.17;;;;;;;32.57;26.53;98446.91;4917068;29;20505;-49
2022/08/04 05:11:33;;;;;;;17.42;3.38;;;;;;;33.01;26.13;98449.44;4951552;29;20114;-49
2022/08/04 05:14:43;;;;;;;15.13;2.50;;;;;;;33.35;25.96;98450.56;4935475;29;20557;-50
2022/08/04 05:17:44;;;;;;;19.13;2.67;;;;;;;33.41;25.62;98440.19;4949652;29;20671;-50
2022/08/04 05:20:20;;;;;;;14.07;2.20;;;;;;;33.46;25.55;98442.63;4938029;28;20049;-49
2022/08/04 05:22:57;;;;;;;18.00;2.53;;;;;;;33.01;26.49;98444.78;4974093;28;20400;-48
2022/08/04 05:25:34;;;;;;;25.40;3.35;;;;;;;32.80;26.71;98444.31;5058481;28;20501;-49
2022/08/04 05:28:00;;;;;;;18.70;3.40;;;;;;;32.88;26.92;98446.06;5073400;28;20055;-48
2022/08/04 05:30:32;;;;;;;15.80;3.05;;;;;;;33.18;26.75;98435.47;5073607;28;20024;-47
2022/08/04 05:33:10;;;;;;;40.53;4.07;;;;;;;33.90;25.45;98431.41;5091643;28;20154;-48
2022/08/04 05:35:42;;;;;;;15.52;2.55;;;;;;;34.39;25.22;98438.88;5073575;28;20039;-48
2022/08/04 05:38:13;;;;;;;20.38;3.00;;;;;;;34.78;24.86;98433.25;5091633;28;20040;-48
2022/08/04 05:40:40;;;;;;;20.27;4.70;;;;;;;35.04;24.75;98441.78;5091697;28;20020;-49
2022/08/04 05:43:07;;;;;;;13.75;2.35;;;;;;;35.55;24.09;98441.22;5073456;28;20489;-49
2022/08/04 05:45:34;;;;;;;29.90;4.28;;;;;;;35.47;24.37;98429.44;5091591;28;20099;-49
2022/08/04 05:48:07;;;;;;;17.55;3.42;;;;;;;35.81;24.08;98434.91;5091581;28;20493;-48
2022/08/04 05:50:32;;;;;;;24.80;3.45;;;;;;;36.11;23.37;98434.78;5091572;28;20085;-48
2022/08/04 05:53:00;;;;;;;9.77;2.42;;;;;;;36.43;23.14;98444.44;5073327;28;20489;-49
2022/08/04 05:55:28;;;;;;;18.00;2.67;;;;;;;36.81;23.22;98445.09;5091492;28;20020;-49
2022/08/04 05:57:55;;;;;;;26.60;3.72;;;;;;;37.56;22.77;98454.44;5073378;28;20036;-48
2022/08/04 06:00:24;;;;;;;29.42;2.97;;;;;;;38.18;21.97;98438.94;5091423;28;20024;-48
2022/08/04 06:02:51;;;;;;;40.92;4.85;;;;;;;38.93;21.04;98446.28;5073260;28;20028;-49
2022/08/04 06:05:18;;;;;;;17.60;2.55;;;;;;;39.45;20.08;98441.00;5073214;28;20118;-49
2022/08/04 06:07:45;;;;;;;28.63;4.45;;;;;;;39.97;20.17;98443.06;5091374;28;20034;-49
2022/08/04 06:10:11;;;;;;;19.20;3.30;;;;;;;40.33;19.54;98449.09;5091304;28;20020;-49
2022/08/04 06:12:46;;;;;;;19.33;3.60;;;;;;;40.46;19.47;98451.31;5091286;28;20078;-49
2022/08/04 06:15:17;;;;;;;19.45;3.67;;;;;;;40.67;19.37;98444.81;5091316;28;20023;-48
2022/08/04 06:17:54;;;;;;;46.40;5.43;;;;;;;40.22;19.92;98455.84;5091941;28;20123;-50
2022/08/04 06:20:22;;;;;;;34.20;3.80;;;;;;;39.54;20.36;98459.78;5095050;28;20031;-47
2022/08/04 06:22:59;;;;;;;27.25;4.22;;;;;;;39.86;20.00;98462.38;5095200;28;20053;-47
2022/08/04 06:25:31;;;;;;;38.42;3.78;;;;;;;40.24;19.80;98465.22;5095172;28;20405;-48
2022/08/04 06:27:59;;;;;;;21.20;4.03;;;;;;;40.18;20.26;98460.56;5076420;28;20119;-49
2022/08/04 06:30:27;;;;;;;13.48;2.45;;;;;;;40.24;20.05;98462.47;5076631;28;20085;-49
2022/08/04 06:32:55;;;;;;;34.45;4.40;;;;;;;40.31;20.23;98467.97;5094645;28;20016;-49
2022/08/04 06:35:23;;;;;;;33.63;4.28;;;;;;;40.05;20.50;98468.53;5076461;28;20111;-49
2022/08/04 06:37:51;;;;;;;22.77;3.58;;;;;;;40.30;20.10;98465.59;5094672;28;20027;-49
2022/08/04 06:40:19;;;;;;;34.80;4.00;;;;;;;40.90;19.62;98472.50;5094597;28;20111;-48
2022/08/04 06:42:47;;;;;;;30.85;4.30;;;;;;;41.83;18.92;98472.56;5094665;28;20417;-48
2022/08/04 06:45:14;;;;;;;30.65;3.67;;;;;;;42.01;18.47;98472.31;5076282;28;20519;-49
2022/08/04 06:47:42;;;;;;;17.10;3.50;;;;;;;41.88;18.71;98474.88;5076343;28;20024;-49
2022/08/04 06:50:09;;;;;;;40.95;4.80;;;;;;;42.27;18.81;98479.00;5076218;28;20024;-48
2022/08/04 06:52:36;;;;;;;34.38;4.38;;;;;;;42.21;18.50;98478.69;5094537;28;20402;-48
2022/08/04 06:55:03;;;;;;;67.43;6.18;;;;;;;42.35;18.56;98479.66;5094308;28;20393;-48
2022/08/04 06:57:31;;;;;;;117.35;11.30;;;;;;;42.36;18.91;98482.00;5094602;28;20023;-51
2022/08/04 07:00:01;;;;;;;57.13;5.90;;;;;;;42.16;19.00;98479.19;5076094;28;20035;-50
2022/08/04 07:02:30;;;;;;;49.60;6.25;;;;;;;42.34;18.96;98487.16;5076068;28;20062;-50
2022/08/04 07:04:56;;;;;;;61.08;7.68;;;;;;;42.78;18.31;98476.16;5094044;28;20042;-51
2022/08/04 07:07:25;;;;;;;30.60;3.53;;;;;;;43.26;17.60;98474.84;5094055;28;20024;-51
2022/08/04 07:09:52;;;;;;;47.67;4.57;;;;;;;43.63;17.85;98473.69;5094055;28;20074;-51
2022/08/04 07:12:22;;;;;;;47.22;5.65;;;;;;;43.71;17.79;98481.81;5093968;28;20020;-51
2022/08/04 07:14:50;;;;;;;13.50;2.50;;;;;;;43.38;17.46;98484.50;5093968;28;20048;-50
2022/08/04 07:17:18;;;;;;;19.52;3.63;;;;;;;43.31;17.87;98482.66;5059118;28;20020;-51
2022/08/04 07:19:43;;;;;;;19.90;2.88;;;;;;;43.18;17.90;98484.47;5075786;28;20028;-50
2022/08/04 07:22:10;;;;;;;14.80;2.65;;;;;;;43.56;16.68;98484.88;5075651;28;20085;-50
2022/08/04 07:24:38;;;;;;;10.35;2.33;;;;;;;44.12;16.01;98486.03;5075625;28;20020;-52
2022/08/04 07:27:05;;;;;;;13.07;2.10;;;;;;;44.48;15.45;98485.94;5075245;28;20020;-52
2022/08/04 07:29:33;;;;;;;13.00;2.10;;;;;;;44.79;15.05;98479.97;5092498;28;20240;-53
2022/08/04 07:32:00;;;;;;;13.82;2.45;;;;;;;44.92;14.95;98485.63;5075429;28;20028;-52
2022/08/04 07:34:27;;;;;;;60.25;7.70;;;;;;;45.32;14.29;98493.59;5093580;28;20020;-49
2022/08/04 07:36:55;;;;;;;30.02;3.05;;;;;;;45.52;13.86;98487.84;5093445;28;20024;-51
2022/08/04 07:39:24;;;;;;;37.85;4.38;;;;;;;46.07;13.54;98483.00;5075336;28;20020;-51
2022/08/04 07:41:50;;;;;;;8.65;1.90;;;;;;;46.53;12.24;98483.47;5093363;28;20137;-51
2022/08/04 07:44:16;;;;;;;10.55;2.10;;;;;;;47.36;11.82;98480.53;5093475;28;20099;-50
2022/08/04 07:46:44;;;;;;;17.25;2.20;;;;;;;48.01;10.92;98479.56;5093352;28;20446;-51
2022/08/04 07:49:11;;;;;;;13.65;1.98;;;;;;;48.33;10.95;98479.50;5093374;28;20051;-50
2022/08/04 07:51:38;;;;;;;10.82;2.45;;;;;;;47.98;10.57;98474.94;5093137;28;20035;-52
2022/08/04 07:54:06;;;;;;;18.60;1.88;;;;;;;47.58;11.30;98488.84;5093212;28;20494;-51
2022/08/04 07:56:34;;;;;;;7.25;1.40;;;;;;;47.18;11.23;98487.53;5093197;28;20104;-52
2022/08/04 07:59:01;;;;;;;11.57;2.03;;;;;;;46.74;11.07;98492.28;5093164;28;20016;-51
2022/08/04 08:01:30;;;;;;;20.60;2.60;;;;;;;46.15;11.82;98484.31;5092981;28;20028;-50
2022/08/04 08:03:57;;;;;;;11.65;1.60;;;;;;;45.21;11.71;98478.03;5074789;28;20118;-51
2022/08/04 08:06:24;;;;;;;6.50;1.38;;;;;;;43.94;12.72;98478.16;5092970;28;20503;-49
2022/08/04 08:08:50;;;;;;;7.70;1.42;;;;;;;43.00;13.39;98477.31;5074747;28;20030;-50
2022/08/04 08:11:16;;;;;;;4.25;1.15;;;;;;;42.39;13.76;98485.91;5092930;28;20020;-50
2022/08/04 08:13:43;;;;;;;4.35;1.15;;;;;;;42.19;13.88;98483.06;5092748;28;20020;-50
2022/08/04 08:16:10;;;;;;;1.75;0.90;;;;;;;42.16;14.19;98483.91;5093009;28;20016;-50
2022/08/04 08:18:36;;;;;;;6.30;1.63;;;;;;;42.22;13.83;98487.75;5092773;28;20020;-50
2022/08/04 08:21:02;;;;;;;6.22;1.50;;;;;;;42.16;14.23;98479.19;5092702;28;20030;-52
2022/08/04 08:23:31;;;;;;;5.05;1.60;;;;;;;42.73;14.33;98474.66;5092646;28;20095;-52
2022/08/04 08:25:58;;;;;;;5.28;1.08;;;;;;;42.81;14.00;98487.13;5074555;28;20024;-51
2022/08/04 08:28:24;;;;;;;3.55;1.30;;;;;;;42.80;13.84;98479.28;5092349;28;20543;-51
2022/08/04 08:30:50;;;;;;;5.90;1.67;;;;;;;43.29;13.90;98476.78;5092550;28;20389;-51
2022/08/04 08:33:16;;;;;;;9.10;1.77;;;;;;;43.70;12.96;98469.22;5092412;28;20020;-50
2022/08/04 08:36:01;;;;;;;2.88;1.35;;;;;;;43.45;13.03;98462.25;5092390;28;20090;-50
2022/08/04 08:38:50;;;;;;;8.38;2.20;;;;;;;43.21;13.36;98467.06;5092593;28;20040;-51
2022/08/04 08:41:53;;;;;;;4.18;1.60;;;;;;;43.19;12.85;98461.97;5092012;28;20031;-52
2022/08/04 08:44:40;;;;;;;2.35;1.10;;;;;;;42.50;13.17;98459.72;5092333;28;20099;-51
2022/08/04 08:47:22;;;;;;;11.52;1.60;;;;;;;42.19;13.94;98459.03;5092282;28;20028;-51
2022/08/04 08:50:06;;;;;;;5.95;1.48;;;;;;;41.97;14.07;98455.81;5092279;28;20056;-51
2022/08/04 08:53:08;;;;;;;10.88;2.08;;;;;;;41.87;14.20;98448.50;5073990;28;20028;-51
2022/08/04 08:56:01;;;;;;;5.55;1.60;;;;;;;41.74;14.21;98453.00;5092229;28;20028;-51
2022/08/04 08:58:51;;;;;;;4.18;1.27;;;;;;;42.34;13.92;98448.53;5092140;28;20031;-51
2022/08/04 09:01:36;;;;;;;4.70;1.88;;;;;;;43.03;13.30;98448.88;5092064;28;20024;-51
2022/08/04 09:04:24;;;;;;;9.20;1.23;;;;;;;43.86;12.33;98445.13;5092126;28;20107;-50
2022/08/04 09:07:25;;;;;;;1.88;0.90;;;;;;;43.57;11.91;98446.97;5073844;28;20551;-52
2022/08/04 09:10:02;;;;;;;4.05;1.10;;;;;;;43.14;12.62;98445.09;5059565;28;20050;-51
2022/08/04 09:12:46;;;;;;;8.35;1.38;;;;;;;42.57;12.23;98442.25;5091939;28;20028;-51
2022/08/04 09:15:26;;;;;;;4.65;1.45;;;;;;;42.16;12.69;98439.78;5091833;28;20078;-51
2022/08/04 09:18:08;;;;;;;1.67;1.08;;;;;;;42.41;12.42;98447.63;5091858;28;20034;-50
2022/08/04 09:20:48;;;;;;;4.30;1.10;;;;;;;42.53;12.41;98436.00;5091927;28;20106;-49
2022/08/04 09:23:27;;;;;;;4.68;1.50;;;;;;;42.77;11.83;98444.25;5092205;28;20785;-51
2022/08/04 09:26:10;;;;;;;4.55;0.95;;;;;;;42.98;11.90;98445.81;5073817;28;20032;-52
2022/08/04 09:29:22;;;;;;;5.15;1.30;;;;;;;43.41;11.74;98420.09;5091662;28;20052;-52
2022/08/04 09:31:59;;;;;;;4.25;0.98;;;;;;;43.07;11.79;98437.75;5080652;28;20028;-51
2022/08/04 09:34:42;;;;;;;2.47;0.90;;;;;;;43.01;11.75;98443.00;5091740;28;20028;-51
2022/08/04 09:37:32;;;;;;;4.50;1.33;;;;;;;42.79;11.65;98436.31;5091767;28;20099;-52
2022/08/04 09:40:17;;;;;;;9.93;1.50;;;;;;;42.39;12.32;98433.47;5073092;28;20050;-52
2022/08/04 09:43:01;;;;;;;2.45;1.20;;;;;;;42.73;12.16;98435.25;5073481;28;20492;-52
2022/08/04 09:45:37;;;;;;;4.90;1.10;;;;;;;42.99;11.55;98434.34;5091902;28;20481;-52
2022/08/04 09:48:12;;;;;;;1.55;1.10;;;;;;;42.93;11.66;98436.06;5073495;28;20524;-51
2022/08/04 09:50:44;;;;;;;2.72;1.10;;;;;;;42.96;12.31;98439.94;5091566;28;20516;-52
2022/08/04 09:53:35;;;;;;;4.93;1.20;;;;;;;43.65;11.79;98421.50;5074728;28;20032;-52
2022/08/04 09:56:01;;;;;;;5.00;1.27;;;;;;;43.60;11.57;98435.06;5077217;28;20032;-51
2022/08/04 09:58:53;;;;;;;2.03;1.30;;;;;;;43.30;12.37;98447.94;5095476;28;20482;-52
2022/08/04 10:01:23;;;;;;;5.95;1.45;;;;;;;43.20;11.97;98437.88;5077226;28;20035;-52
2022/08/04 10:03:53;;;;;;;7.38;1.00;;;;;;;43.17;12.02;98419.41;5095430;28;20055;-51
2022/08/04 10:06:28;;;;;;;3.40;1.10;;;;;;;43.08;12.20;98436.53;5077130;28;20067;-52
2022/08/04 10:09:12;;;;;;;5.45;1.58;;;;;;;43.22;12.32;98425.19;5095267;28;20024;-52
2022/08/04 10:11:56;;;;;;;4.82;1.65;;;;;;;43.73;11.84;98430.44;5077026;28;20031;-52
2022/08/04 10:14:49;;;;;;;9.35;1.48;;;;;;;43.85;11.93;98432.53;5076870;28;20028;-52
2022/08/04 10:17:34;;;;;;;3.90;1.45;;;;;;;43.75;12.32;98452.91;5095157;28;20081;-50
2022/08/04 10:20:20;;;;;;;5.15;1.45;;;;;;;43.48;12.52;98431.75;5076864;28;20398;-52
2022/08/04 10:23:09;;;;;;;6.10;1.33;;;;;;;43.46;12.59;98422.34;5095055;28;20635;-52
2022/08/04 10:26:05;;;;;;;6.63;1.63;;;;;;;43.61;13.07;98409.75;5055175;28;20047;-51
2022/08/04 10:28:38;;;;;;;1.65;1.13;;;;;;;43.92;12.07;98414.97;5076461;28;20048;-52
2022/08/04 10:31:12;;;;;;;1.00;0.90;;;;;;;44.06;11.94;98406.31;5076707;28;20032;-52
2022/08/04 10:33:44;;;;;;;2.67;0.98;;;;;;;43.66;12.46;98408.44;5094743;28;20043;-51
2022/08/04 10:36:11;;;;;;;2.25;0.93;;;;;;;43.57;12.37;98416.56;5076542;28;20028;-52
2022/08/04 10:39:00;;;;;;;7.75;1.45;;;;;;;43.85;12.80;98404.88;5094638;28;20032;-52
2022/08/04 10:41:48;;;;;;;2.17;1.08;;;;;;;44.40;12.41;98407.06;5094638;28;20028;-52
2022/08/04 10:44:22;;;;;;;2.50;1.00;;;;;;;44.12;11.78;98414.88;5094621;28;20028;-52
2022/08/04 10:47:02;;;;;;;9.60;1.50;;;;;;;43.85;12.14;98399.34;5094576;28;20020;-51
2022/08/04 10:49:30;;;;;;;2.45;1.40;;;;;;;44.23;12.34;98407.09;5076316;28;20036;-50
2022/08/04 10:52:10;;;;;;;3.10;0.90;;;;;;;44.24;11.92;98400.34;5076147;28;20030;-51
2022/08/04 10:54:51;;;;;;;5.15;1.27;;;;;;;44.30;11.88;98405.34;5076223;28;20039;-51
2022/08/04 10:57:39;;;;;;;3.80;1.10;;;;;;;44.55;11.80;98399.94;5094432;28;20032;-52
2022/08/04 11:00:08;;;;;;;2.13;1.20;;;;;;;44.70;11.83;98405.09;5094390;28;20035;-52
2022/08/04 11:02:48;;;;;;;4.18;1.30;;;;;;;44.60;11.19;98396.66;5076099;28;20119;-52
2022/08/04 11:05:23;;;;;;;3.55;1.20;;;;;;;44.65;11.98;98390.59;5075779;28;20024;-52
2022/08/04 11:07:52;;;;;;;5.65;1.30;;;;;;;44.85;12.24;98395.91;5094155;28;20031;-52
2022/08/04 11:10:22;;;;;;;2.60;1.13;;;;;;;45.04;11.84;98408.06;5094075;28;20031;-52
2022/08/04 11:12:57;;;;;;;5.93;1.30;;;;;;;44.59;11.67;98381.22;5094107;28;20051;-51
2022/08/04 11:15:33;;;;;;;1.95;1.20;;;;;;;44.54;12.26;98392.09;5094082;28;20035;-51
2022/08/04 11:18:07;;;;;;;4.28;1.58;;;;;;;44.46;12.14;98381.19;5094059;28;20024;-52
2022/08/04 11:20:36;;;;;;;10.27;1.92;;;;;;;44.75;11.98;98385.16;5075785;28;20040;-51
2022/08/04 11:23:08;;;;;;;5.35;1.33;;;;;;;44.89;11.64;98389.53;5093877;28;20115;-52
2022/08/04 11:25:43;;;;;;;4.00;1.35;;;;;;;45.10;11.94;98388.13;5093814;28;20464;-52
2022/08/04 11:28:15;;;;;;;3.58;1.23;;;;;;;45.40;11.69;98382.09;5093555;28;20409;-52
2022/08/04 11:30:55;;;;;;;7.35;1.48;;;;;;;45.78;11.73;98377.72;5093658;28;20038;-51
2022/08/04 11:33:28;;;;;;;3.30;1.10;;;;;;;45.86;11.41;98381.81;5093617;28;20031;-51
2022/08/04 11:36:31;;;;;;;5.05;1.55;;;;;;;45.57;11.71;98376.41;5093666;28;20062;-53
2022/08/04 11:39:07;;;;;;;4.28;1.38;;;;;;;45.43;11.46;98370.09;5093642;28;20028;-52
2022/08/04 11:41:51;;;;;;;17.90;1.92;;;;;;;45.59;11.44;98362.88;5093732;28;20118;-53
2022/08/04 11:44:29;;;;;;;3.03;1.02;;;;;;;45.71;11.43;98364.13;5093468;28;20031;-52
2022/08/04 11:47:01;;;;;;;2.88;1.25;;;;;;;45.64;11.19;98371.44;5093448;28;20024;-51
2022/08/04 11:49:40;;;;;;;7.20;1.52;;;;;;;45.45;11.33;98370.41;5093378;28;20405;-51
2022/08/04 11:52:08;;;;;;;6.93;1.63;;;;;;;45.03;11.86;98353.88;5075070;28;20497;-51
2022/08/04 11:54:37;;;;;;;9.23;1.30;;;;;;;44.54;12.02;98364.41;5093459;28;20098;-51
2022/08/04 11:57:03;;;;;;;30.80;3.05;;;;;;;44.89;12.30;98357.09;5093144;28;20022;-51
2022/08/04 11:59:35;;;;;;;5.72;1.40;;;;;;;45.44;11.51;98351.50;5093177;28;20038;-51
2022/08/04 12:02:12;;;;;;;8.25;1.50;;;;;;;45.55;11.29;98365.00;5093141;28;20028;-50
2022/08/04 12:04:55;;;;;;;10.10;1.70;;;;;;;45.51;11.36;98356.03;5093056;28;20045;-50
2022/08/04 12:07:39;;;;;;;;;;;;;;;45.80;11.37;98348.34;5075214;28;20028;-50
2022/08/04 12:10:23;;;;;;;2.17;1.30;;;;;;;45.57;11.34;98354.22;5092944;28;19912;-51
2022/08/04 12:13:26;;;;;;;8.75;1.70;;;;;;;45.63;11.68;98347.66;5092845;28;20028;-50
2022/08/04 12:16:24;;;;;;;4.75;1.30;;;;;;;45.72;11.22;98347.03;5092058;28;20060;-51
2022/08/04 12:18:56;;;;;;;15.63;1.48;;;;;;;46.13;11.19;98339.72;5086791;28;20031;-51
2022/08/04 12:21:30;;;;;;;4.57;1.20;;;;;;;46.15;10.85;98340.03;5092876;28;20032;-51
2022/08/04 12:24:07;;;;;;;15.98;2.60;;;;;;;46.03;11.52;98338.84;5092762;28;20541;-51